Hlavní strana
METAR-TAF:

METAR-TAF

Letiště :

Brunej, Brunej

zeměpisná šířka: 04-56N, zeměpisná délka: 114-56E, výška: 22 m

Aktuální stav počasí

Zpráva byla vytvořena před 39 minutami, v 00:00 UTC
Východojihovýchodní vítr 2 kt
Teplota 26°C
Vlhkost vzduchu 94%
Tlak 1011 hPa
Viditelnost: 7000 m
Skoro jasno ve výšce 1200 ft
Polojasno ve výšce 2000 ft
Oblačno až skoro zataženo ve výšce 14000 ft
slabé dešťové přeháňky

METAR: WBSB 230000Z 11002KT 7000 -SHRA FEW012 SCT020 BKN140 26/25 Q1011 NOSIG

Čas: 08:39 (00:39 UTC)

Předpověď počasí

Zpráva byla vytvořena před 1 hodinou a 39 minutami, v 23:00 UTC
Předpověď platná od 23 v 00 UTC do 24 v 06 UTC
Severoseverovýchodní vítr 3 kt
Viditelnost 10 km a více
Polojasno ve výšce 1400 ft
Skoro jasno ve výšce 1500 ft, Cumulonimbus.
Změna
od 23 v 04 UTC do 23 v 06 UTC
Severní vítr 10 kt
Skoro jasno ve výšce 1600 ft
Skoro jasno ve výšce 1700 ft, Cumulonimbus.

TAF: WBSB 222300Z 2300/2406 02003KT 9999 SCT014 FEW015CB BECMG 2304/2306 35010KT FEW016 FEW017CB

Stav a předpovědi počasí z více než 4 000 letišť (zprávy METAR a TAF).

Červené a žluté tečky na mapě představují dostupné meteorologické stanice.

Když kurzor umístíte na tečku, zobrazí se název stanice.

Pak kliknutím zobrazíte stav a předpověď počasí.

Chcete-li změnit mapu, kliknutím na zelené tlačítko se znaménkem +mapu přiblížíte, kliknutím na zelené tlačítko se znaménkem – mapu oddálíte a kliknutím na zelené šipky přejdete na sousední mapy.


METAR-TAF: